Time;durP1;ratioP1;P1;durP2;ratioP2;P2;SDS_P1;SDS_P2;PMS_P1;PMS_P2;Temp;Humidity;BMP_temperature;BMP_pressure;BME280_temperature;BME280_humidity;BME280_pressure;Samples;Min_cycle;Max_cycle;Signal;HPM_P1;HPM_P2
2022/07/03 00:01:16;;;;;;;;;;;17.70;99.90;;;;;;4964580;28;19930;-73
2022/07/03 00:03:41;;;;;;;;;;;17.60;99.90;;;;;;4951846;28;19941;-73
2022/07/03 00:06:07;;;;;;;;;;;17.60;99.90;;;;;;4966046;28;19941;-73
2022/07/03 00:08:32;;;;;;;;;;;17.60;99.90;;;;;;4966670;28;19917;-72
2022/07/03 00:10:58;;;;;;;;;;;17.60;99.90;;;;;;4966339;28;19948;-72
2022/07/03 00:13:24;;;;;;;;;;;17.60;99.90;;;;;;4967823;28;20408;-73
2022/07/03 00:15:50;;;;;;;;;;;17.60;99.90;;;;;;4949489;28;19918;-73
2022/07/03 00:18:15;;;;;;;;;;;17.60;99.90;;;;;;4967605;28;19918;-73
2022/07/03 00:20:45;;;;;;;;;;;17.60;99.90;;;;;;4970020;28;19926;-73
2022/07/03 00:23:13;;;;;;;;;;;17.50;99.90;;;;;;4965888;28;19926;-72
2022/07/03 00:25:39;;;;;;;;;;;17.50;99.90;;;;;;4966478;28;19918;-72
2022/07/03 00:28:06;;;;;;;;;;;17.40;99.90;;;;;;4971048;28;19918;-72
2022/07/03 00:30:31;;;;;;;;;;;17.40;99.90;;;;;;4977813;28;19922;-73
2022/07/03 00:32:57;;;;;;;;;;;17.40;99.90;;;;;;4965321;28;20364;-72
2022/07/03 00:35:23;;;;;;;;;;;17.30;99.90;;;;;;4946636;28;20270;-72
2022/07/03 00:37:48;;;;;;;;;;;17.30;99.90;;;;;;4963906;28;20303;-72
2022/07/03 00:40:14;;;;;;;;;;;17.30;99.90;;;;;;4980098;28;20503;-73
2022/07/03 00:42:40;;;;;;;;;;;17.30;99.90;;;;;;4990745;28;20351;-72
2022/07/03 00:45:06;;;;;;;;;;;17.20;99.90;;;;;;4978011;28;20339;-72
2022/07/03 00:47:34;;;;;;;;;;;17.20;99.90;;;;;;4970512;28;19918;-73
2022/07/03 00:50:05;;;;;;;;;;;17.20;99.90;;;;;;4980263;28;19924;-72
2022/07/03 00:52:30;;;;;;;;;;;17.10;99.90;;;;;;4986045;28;19921;-73
2022/07/03 00:54:57;;;;;;;;;;;17.10;99.90;;;;;;4971421;28;20327;-72
2022/07/03 00:57:23;;;;;;;;;;;17.10;99.90;;;;;;4979052;28;20491;-72
2022/07/03 00:59:49;;;;;;;;;;;17.00;99.90;;;;;;4972324;28;19922;-73
2022/07/03 01:02:35;;;;;;;;;;;16.90;99.90;;;;;;4978212;28;20408;-72
2022/07/03 01:05:04;;;;;;;;;;;16.90;99.90;;;;;;4944092;28;19919;-73
2022/07/03 01:07:48;;;;;;;;;;;16.80;99.90;;;;;;4951775;28;19917;-72
2022/07/03 01:10:20;;;;;;;;;;;16.80;99.90;;;;;;4984416;28;19917;-72
2022/07/03 01:12:58;;;;;;;;;;;16.80;99.90;;;;;;4979639;28;20612;-73
2022/07/03 01:15:34;;;;;;;;;;;16.70;99.90;;;;;;4985653;28;19961;-72
2022/07/03 01:18:12;;;;;;;;;;;16.70;99.90;;;;;;4983656;28;19940;-73
2022/07/03 01:20:38;;;;;;;;;;;16.60;99.90;;;;;;4990134;28;19921;-73
2022/07/03 01:23:09;;;;;;;;;;;16.60;99.90;;;;;;4972310;28;19969;-72
2022/07/03 01:25:44;;;;;;;;;;;16.50;99.90;;;;;;4976792;28;19918;-73
2022/07/03 01:28:11;;;;;;;;;;;16.50;99.90;;;;;;4982027;28;19957;-73
2022/07/03 01:30:42;;;;;;;;;;;16.50;99.90;;;;;;4981670;28;19929;-72
2022/07/03 01:33:09;;;;;;;;;;;16.50;99.90;;;;;;4972953;28;19925;-72
2022/07/03 01:35:36;;;;;;;;;;;16.40;99.90;;;;;;4964788;28;19918;-73
2022/07/03 01:38:03;;;;;;;;;;;16.40;99.90;;;;;;4970330;28;19922;-72
2022/07/03 01:40:30;;;;;;;;;;;16.40;99.90;;;;;;4986780;28;19954;-73
2022/07/03 01:42:56;;;;;;;;;;;16.30;99.90;;;;;;4977222;28;19926;-72
2022/07/03 01:45:22;;;;;;;;;;;16.30;99.90;;;;;;4988624;28;20299;-73
2022/07/03 01:47:49;;;;;;;;;;;16.20;99.90;;;;;;4975273;28;19929;-72
2022/07/03 01:50:15;;;;;;;;;;;16.20;99.90;;;;;;4985087;28;19918;-72
2022/07/03 01:52:41;;;;;;;;;;;16.10;99.90;;;;;;4975723;28;20285;-72
2022/07/03 01:55:08;;;;;;;;;;;16.10;99.90;;;;;;4981302;28;20012;-72
2022/07/03 01:57:40;;;;;;;;;;;16.00;99.90;;;;;;4971596;28;19918;-73
2022/07/03 02:00:06;;;;;;;;;;;16.00;99.90;;;;;;4975704;28;19957;-72
2022/07/03 02:02:33;;;;;;;;;;;15.90;99.90;;;;;;4982607;28;19925;-72
2022/07/03 02:05:00;;;;;;;;;;;15.90;99.90;;;;;;4973545;28;19977;-72
2022/07/03 02:07:33;;;;;;;;;;;15.80;99.90;;;;;;4968027;28;19925;-72
2022/07/03 02:10:02;;;;;;;;;;;15.80;99.90;;;;;;4982895;28;19921;-72
2022/07/03 02:12:32;;;;;;;;;;;15.70;99.90;;;;;;4981595;28;19925;-72
2022/07/03 02:15:06;;;;;;;;;;;15.70;99.90;;;;;;4982782;28;20065;-72
2022/07/03 02:17:36;;;;;;;;;;;15.70;99.90;;;;;;4987377;28;19917;-72
2022/07/03 02:20:04;;;;;;;;;;;15.70;99.90;;;;;;4977928;28;19961;-72
2022/07/03 02:22:34;;;;;;;;;;;15.70;99.90;;;;;;4973745;28;19918;-73
2022/07/03 02:25:03;;;;;;;;;;;15.70;99.90;;;;;;4981477;28;20008;-72
2022/07/03 02:27:31;;;;;;;;;;;15.60;99.90;;;;;;4965518;28;20056;-72
2022/07/03 02:30:04;;;;;;;;;;;15.60;99.90;;;;;;4980668;28;19926;-73
2022/07/03 02:32:36;;;;;;;;;;;15.50;99.90;;;;;;4983574;28;19918;-73
2022/07/03 02:35:04;;;;;;;;;;;15.50;99.90;;;;;;4966973;28;19918;-72
2022/07/03 02:37:31;;;;;;;;;;;15.40;99.90;;;;;;4969114;28;19953;-72
2022/07/03 02:40:17;;;;;;;;;;;15.40;99.90;;;;;;4979617;28;19929;-72
2022/07/03 02:42:47;;;;;;;;;;;15.40;99.90;;;;;;4942481;28;19922;-72
2022/07/03 02:45:12;;;;;;;;;;;15.40;99.90;;;;;;4969131;28;19918;-73
2022/07/03 02:47:57;;;;;;;;;;;15.40;99.90;;;;;;4955604;28;20269;-72
2022/07/03 02:50:24;;;;;;;;;;;15.40;99.90;;;;;;4976613;28;19918;-73
2022/07/03 02:52:54;;;;;;;;;;;15.40;99.90;;;;;;4967250;28;20041;-73
2022/07/03 02:55:32;;;;;;;;;;;15.40;99.90;;;;;;4954279;28;20385;-73
2022/07/03 02:58:05;;;;;;;;;;;15.30;99.90;;;;;;4970795;28;19925;-72
2022/07/03 03:00:34;;;;;;;;;;;15.20;99.90;;;;;;4973398;28;19983;-72
2022/07/03 03:03:01;;;;;;;;;;;15.10;99.90;;;;;;4966371;28;19929;-73
2022/07/03 03:05:27;;;;;;;;;;;15.10;99.90;;;;;;4971093;28;19932;-72
2022/07/03 03:07:56;;;;;;;;;;;15.10;99.90;;;;;;4953144;28;19918;-72
2022/07/03 03:10:22;;;;;;;;;;;15.10;99.90;;;;;;4972812;28;20008;-72
2022/07/03 03:12:57;;;;;;;;;;;15.10;99.90;;;;;;4975269;28;20012;-72
2022/07/03 03:15:28;;;;;;;;;;;15.10;99.90;;;;;;4976308;28;19925;-72
2022/07/03 03:17:55;;;;;;;;;;;15.10;99.90;;;;;;4974085;28;19918;-72
2022/07/03 03:20:23;;;;;;;;;;;15.10;99.90;;;;;;4973349;28;19922;-72
2022/07/03 03:22:58;;;;;;;;;;;15.10;99.90;;;;;;4972483;28;19922;-72
2022/07/03 03:25:24;;;;;;;;;;;15.10;99.90;;;;;;4966442;28;19918;-72
2022/07/03 03:27:50;;;;;;;;;;;15.10;99.90;;;;;;4968899;28;20004;-72
2022/07/03 03:30:15;;;;;;;;;;;15.10;99.90;;;;;;4977521;28;19921;-72
2022/07/03 03:32:41;;;;;;;;;;;15.10;99.90;;;;;;4967799;28;19922;-72
2022/07/03 03:35:08;;;;;;;;;;;15.20;99.90;;;;;;4971015;28;19918;-72
2022/07/03 03:37:34;;;;;;;;;;;15.20;99.90;;;;;;4968967;28;20004;-72
2022/07/03 03:40:01;;;;;;;;;;;15.20;99.90;;;;;;4975907;28;20008;-72
2022/07/03 03:42:26;;;;;;;;;;;15.20;99.90;;;;;;4979239;28;19932;-72
2022/07/03 03:44:52;;;;;;;;;;;15.30;99.90;;;;;;4976924;28;20012;-72
2022/07/03 03:47:18;;;;;;;;;;;15.30;99.90;;;;;;4975030;28;19965;-72
2022/07/03 03:49:44;;;;;;;;;;;15.30;99.90;;;;;;4980582;28;19921;-72
2022/07/03 03:52:09;;;;;;;;;;;15.30;99.90;;;;;;4981518;28;19918;-72
2022/07/03 03:54:35;;;;;;;;;;;15.30;99.90;;;;;;4973026;28;19953;-72
2022/07/03 03:57:20;;;;;;;;;;;15.30;99.90;;;;;;4966037;28;19965;-72
2022/07/03 03:59:46;;;;;;;;;;;15.30;99.90;;;;;;4972748;28;19949;-72
2022/07/03 04:02:12;;;;;;;;;;;15.40;99.90;;;;;;4970920;28;20377;-72
2022/07/03 04:04:38;;;;;;;;;;;15.40;99.90;;;;;;4980053;28;19965;-72
2022/07/03 04:07:03;;;;;;;;;;;15.40;99.90;;;;;;4961133;28;19973;-72
2022/07/03 04:09:29;;;;;;;;;;;15.40;99.90;;;;;;4970701;28;19924;-72
2022/07/03 04:11:56;;;;;;;;;;;15.40;99.90;;;;;;4965505;28;19961;-72
2022/07/03 04:14:21;;;;;;;;;;;15.40;99.90;;;;;;4965937;28;19967;-72
2022/07/03 04:16:47;;;;;;;;;;;15.40;99.90;;;;;;4969050;28;19926;-72
2022/07/03 04:19:12;;;;;;;;;;;15.50;99.90;;;;;;4971407;28;19918;-72
2022/07/03 04:21:38;;;;;;;;;;;15.50;99.90;;;;;;4971655;28;19925;-72
2022/07/03 04:24:04;;;;;;;;;;;15.50;99.90;;;;;;4968727;28;20388;-72
2022/07/03 04:26:29;;;;;;;;;;;15.40;99.90;;;;;;4965115;28;19918;-72
2022/07/03 04:28:55;;;;;;;;;;;15.40;99.90;;;;;;4973918;28;19964;-72
2022/07/03 04:31:20;;;;;;;;;;;15.40;99.90;;;;;;4977955;28;19922;-73
2022/07/03 04:33:46;;;;;;;;;;;15.40;99.90;;;;;;4971670;28;19969;-72
2022/07/03 04:36:12;;;;;;;;;;;15.40;99.90;;;;;;4970008;28;19918;-72
2022/07/03 04:38:37;;;;;;;;;;;15.30;99.90;;;;;;4970872;28;20690;-72
2022/07/03 04:41:03;;;;;;;;;;;15.40;99.90;;;;;;4981254;28;19922;-72
2022/07/03 04:43:29;;;;;;;;;;;15.30;99.90;;;;;;4963106;28;19917;-72
2022/07/03 04:45:54;;;;;;;;;;;15.30;99.90;;;;;;4958124;28;19922;-72
2022/07/03 04:48:20;;;;;;;;;;;15.40;99.90;;;;;;4958973;28;20004;-72
2022/07/03 04:50:45;;;;;;;;;;;15.40;99.90;;;;;;4982955;28;19918;-72
2022/07/03 04:53:11;;;;;;;;;;;15.30;99.90;;;;;;4971569;28;19924;-72
2022/07/03 04:55:37;;;;;;;;;;;15.30;99.90;;;;;;4972406;28;20016;-72
2022/07/03 04:58:02;;;;;;;;;;;15.30;99.90;;;;;;4970177;28;19922;-72
2022/07/03 05:00:28;;;;;;;;;;;15.30;99.90;;;;;;4966841;28;19922;-72
2022/07/03 05:02:54;;;;;;;;;;;15.30;99.90;;;;;;4972880;28;19918;-72
2022/07/03 05:05:19;;;;;;;;;;;15.40;99.90;;;;;;4962045;28;20432;-72
2022/07/03 05:07:45;;;;;;;;;;;15.40;99.90;;;;;;4969388;28;20005;-72
2022/07/03 05:10:10;;;;;;;;;;;15.40;99.90;;;;;;4969950;28;20296;-72
2022/07/03 05:12:36;;;;;;;;;;;15.40;99.90;;;;;;4972432;28;19929;-72
2022/07/03 05:15:01;;;;;;;;;;;15.40;99.90;;;;;;4970848;28;20297;-72
2022/07/03 05:17:27;;;;;;;;;;;15.40;99.90;;;;;;4964907;28;20344;-72
2022/07/03 05:20:23;;;;;;;;;;;15.50;99.90;;;;;;4976390;28;19930;-72
2022/07/03 05:22:38;;;;;;;;;;;15.50;99.90;;;;;;4960749;28;20384;-72
2022/07/03 05:25:04;;;;;;;;;;;15.50;99.90;;;;;;4968106;28;20024;-72
2022/07/03 05:27:29;;;;;;;;;;;15.60;99.90;;;;;;4968752;28;20403;-72
2022/07/03 05:29:55;;;;;;;;;;;15.60;99.90;;;;;;4972526;28;19969;-72
2022/07/03 05:32:20;;;;;;;;;;;15.70;99.90;;;;;;4965970;28;19965;-72
2022/07/03 05:34:46;;;;;;;;;;;15.70;99.90;;;;;;4973761;28;19925;-72
2022/07/03 05:37:12;;;;;;;;;;;15.80;99.90;;;;;;4970955;28;20004;-72
2022/07/03 05:39:37;;;;;;;;;;;15.90;99.90;;;;;;4985750;28;19922;-72
2022/07/03 05:42:03;;;;;;;;;;;16.00;99.90;;;;;;4974315;28;19922;-72
2022/07/03 05:44:29;;;;;;;;;;;16.10;99.90;;;;;;4973839;28;20008;-72
2022/07/03 05:46:55;;;;;;;;;;;16.20;99.90;;;;;;4957811;28;20041;-72
2022/07/03 05:49:20;;;;;;;;;;;16.30;99.90;;;;;;4983727;28;19967;-73
2022/07/03 05:51:46;;;;;;;;;;;16.40;99.90;;;;;;4981991;28;19921;-72
2022/07/03 05:54:11;;;;;;;;;;;16.50;99.90;;;;;;4983289;28;19917;-72
2022/07/03 05:56:37;;;;;;;;;;;16.60;99.90;;;;;;4970406;28;19925;-72
2022/07/03 05:59:03;;;;;;;;;;;16.70;99.90;;;;;;4963236;28;19921;-72
2022/07/03 06:01:29;;;;;;;;;;;16.80;99.90;;;;;;4972084;28;20372;-72
2022/07/03 06:03:54;;;;;;;;;;;17.00;99.90;;;;;;4969266;28;19926;-73
2022/07/03 06:06:20;;;;;;;;;;;17.10;99.90;;;;;;4976234;28;19925;-72
2022/07/03 06:08:45;;;;;;;;;;;17.20;99.90;;;;;;4966554;28;19924;-72
2022/07/03 06:11:11;;;;;;;;;;;17.40;99.90;;;;;;4968275;28;19961;-72
2022/07/03 06:13:36;;;;;;;;;;;17.50;99.90;;;;;;4959793;28;20038;-73
2022/07/03 06:16:02;;;;;;;;;;;17.80;99.90;;;;;;4971082;28;19929;-72
2022/07/03 06:18:27;;;;;;;;;;;17.90;99.90;;;;;;4973013;28;19929;-73
2022/07/03 06:20:53;;;;;;;;;;;18.20;99.90;;;;;;4974140;28;19928;-72
2022/07/03 06:23:19;;;;;;;;;;;18.40;99.90;;;;;;4972953;28;20017;-72
2022/07/03 06:25:44;;;;;;;;;;;18.50;99.90;;;;;;4964780;28;19917;-73
2022/07/03 06:28:10;;;;;;;;;;;18.50;99.90;;;;;;4971327;28;19976;-72
2022/07/03 06:30:35;;;;;;;;;;;18.50;99.90;;;;;;4977547;28;19945;-73
2022/07/03 06:33:01;;;;;;;;;;;18.50;99.90;;;;;;4974436;28;20373;-72
2022/07/03 06:35:26;;;;;;;;;;;18.60;99.90;;;;;;4961740;28;20025;-72
2022/07/03 06:37:52;;;;;;;;;;;18.70;99.90;;;;;;4974611;28;20396;-72
2022/07/03 06:40:17;;;;;;;;;;;18.80;99.90;;;;;;4985028;28;20465;-72
2022/07/03 06:42:43;;;;;;;;;;;18.90;99.90;;;;;;4976594;28;19921;-72
2022/07/03 06:45:09;;;;;;;;;;;19.00;99.90;;;;;;4980766;28;19925;-72
2022/07/03 06:47:38;;;;;;;;;;;19.10;99.90;;;;;;4979887;28;19934;-72
2022/07/03 06:50:04;;;;;;;;;;;19.20;99.90;;;;;;4970835;28;19918;-72
2022/07/03 06:52:29;;;;;;;;;;;19.40;99.90;;;;;;4975514;28;20392;-72
2022/07/03 06:54:55;;;;;;;;;;;19.50;99.90;;;;;;4975305;28;20407;-72
2022/07/03 06:57:20;;;;;;;;;;;19.60;99.90;;;;;;4968582;28;20400;-72
2022/07/03 06:59:48;;;;;;;;;;;19.70;99.90;;;;;;4962338;28;20392;-73
2022/07/03 07:02:13;;;;;;;;;;;19.70;99.90;;;;;;4969808;28;19941;-73
2022/07/03 07:04:39;;;;;;;;;;;19.90;99.90;;;;;;4979529;28;20383;-72
2022/07/03 07:07:05;;;;;;;;;;;20.00;99.90;;;;;;4973056;28;20445;-72
2022/07/03 07:09:30;;;;;;;;;;;20.10;99.90;;;;;;4969444;28;20447;-72
2022/07/03 07:11:56;;;;;;;;;;;20.20;99.90;;;;;;4968719;28;19922;-73
2022/07/03 07:14:21;;;;;;;;;;;20.40;99.90;;;;;;4970623;28;20042;-72
2022/07/03 07:16:47;;;;;;;;;;;20.50;99.90;;;;;;4964867;28;19953;-72
2022/07/03 07:19:13;;;;;;;;;;;20.60;99.90;;;;;;4970447;28;20096;-72
2022/07/03 07:21:38;;;;;;;;;;;20.80;99.90;;;;;;4969932;28;19922;-72
2022/07/03 07:24:04;;;;;;;;;;;20.80;99.90;;;;;;4974781;28;20376;-72
2022/07/03 07:26:30;;;;;;;;;;;21.00;99.90;;;;;;4972416;28;20008;-72
2022/07/03 07:28:55;;;;;;;;;;;21.10;99.90;;;;;;4964453;28;19926;-72
2022/07/03 07:31:21;;;;;;;;;;;21.20;99.90;;;;;;4966359;28;20553;-72
2022/07/03 07:33:46;;;;;;;;;;;21.30;99.90;;;;;;4963377;28;22106;-71
2022/07/03 07:36:12;;;;;;;;;;;21.30;99.90;;;;;;4967024;28;19918;-73
2022/07/03 07:38:37;;;;;;;;;;;21.30;99.90;;;;;;4960534;28;19923;-73
2022/07/03 07:41:03;;;;;;;;;;;21.40;99.90;;;;;;4965231;28;20300;-73
2022/07/03 07:43:28;;;;;;;;;;;21.40;99.90;;;;;;4962916;28;19999;-74
2022/07/03 07:45:54;;;;;;;;;;;21.50;99.90;;;;;;4969164;28;19965;-73
2022/07/03 07:48:20;;;;;;;;;;;21.40;99.90;;;;;;4969650;28;19997;-73
2022/07/03 07:50:45;;;;;;;;;;;21.40;99.90;;;;;;4964779;28;20008;-71
2022/07/03 07:53:11;;;;;;;;;;;21.40;99.90;;;;;;4971849;28;19957;-71
2022/07/03 07:55:36;;;;;;;;;;;21.50;99.90;;;;;;4967750;28;19940;-71
2022/07/03 07:58:02;;;;;;;;;;;21.60;99.90;;;;;;4963891;28;20367;-73
2022/07/03 08:00:27;;;;;;;;;;;21.70;99.90;;;;;;4965706;28;19945;-73
2022/07/03 08:05:37;;;;;;;;;;;21.80;99.90;;;;;;4966746;28;19933;-73
2022/07/03 08:08:13;;;;;;;;;;;22.00;99.90;;;;;;4949326;28;20368;-72
2022/07/03 08:10:43;;;;;;;;;;;22.00;99.90;;;;;;4951799;28;19933;-72
2022/07/03 08:13:09;;;;;;;;;;;22.00;99.90;;;;;;4947725;28;19965;-73
2022/07/03 08:15:35;;;;;;;;;;;22.10;99.90;;;;;;4960503;28;19925;-73
2022/07/03 08:18:02;;;;;;;;;;;22.00;99.90;;;;;;4966367;28;19918;-73
2022/07/03 08:20:30;;;;;;;;;;;22.00;99.90;;;;;;4953216;28;20385;-73
2022/07/03 08:22:56;;;;;;;;;;;21.90;99.90;;;;;;4970608;28;19922;-73
2022/07/03 08:25:22;;;;;;;;;;;21.80;99.90;;;;;;4930426;28;20300;-73
2022/07/03 08:27:48;;;;;;;;;;;21.70;99.90;;;;;;4949955;28;19929;-73
2022/07/03 08:30:17;;;;;;;;;;;21.70;99.90;;;;;;4948523;28;19926;-72
2022/07/03 08:32:49;;;;;;;;;;;21.90;99.90;;;;;;4947589;28;19918;-73
2022/07/03 08:35:15;;;;;;;;;;;22.00;99.90;;;;;;4953245;28;19972;-73
2022/07/03 08:37:42;;;;;;;;;;;22.10;99.90;;;;;;4961730;28;19965;-73
2022/07/03 08:40:08;;;;;;;;;;;22.20;99.90;;;;;;4964341;28;19942;-74
2022/07/03 08:42:36;;;;;;;;;;;22.20;99.90;;;;;;4960646;28;19922;-73
2022/07/03 08:45:02;;;;;;;;;;;22.20;99.90;;;;;;4961591;28;19961;-73
2022/07/03 08:47:29;;;;;;;;;;;22.30;99.90;;;;;;4961528;28;19976;-74
2022/07/03 08:49:55;;;;;;;;;;;22.40;99.90;;;;;;4965217;28;20445;-72
2022/07/03 08:52:22;;;;;;;;;;;22.50;99.90;;;;;;4967997;28;19918;-72
2022/07/03 08:54:47;;;;;;;;;;;22.70;99.90;;;;;;4966241;28;20378;-73
2022/07/03 08:57:13;;;;;;;;;;;22.60;99.90;;;;;;4966110;28;20014;-73
2022/07/03 08:59:39;;;;;;;;;;;22.60;99.90;;;;;;4966883;28;19981;-73
2022/07/03 09:02:05;;;;;;;;;;;22.30;99.90;;;;;;4933740;28;20428;-72
2022/07/03 09:04:35;;;;;;;;;;;22.40;99.90;;;;;;4966302;28;19953;-73
2022/07/03 09:07:00;;;;;;;;;;;22.30;99.90;;;;;;4967155;28;19922;-72
2022/07/03 09:09:27;;;;;;;;;;;22.40;99.90;;;;;;4970403;28;19986;-72
2022/07/03 09:11:52;;;;;;;;;;;22.50;99.90;;;;;;4964971;28;19929;-74
2022/07/03 09:14:18;;;;;;;;;;;22.60;99.90;;;;;;4967898;28;20338;-72
2022/07/03 09:16:44;;;;;;;;;;;22.60;99.90;;;;;;4966595;28;19980;-72
2022/07/03 09:19:09;;;;;;;;;;;22.70;99.90;;;;;;4969205;28;20344;-73
2022/07/03 09:21:37;;;;;;;;;;;22.80;99.90;;;;;;4983195;28;19922;-73
2022/07/03 09:24:04;;;;;;;;;;;22.80;99.90;;;;;;4975280;28;20017;-72
2022/07/03 09:26:29;;;;;;;;;;;23.00;99.90;;;;;;4974888;28;19930;-73
2022/07/03 09:28:55;;;;;;;;;;;23.20;99.90;;;;;;4974169;28;19925;-73
2022/07/03 09:31:22;;;;;;;;;;;23.40;99.90;;;;;;4979159;28;19924;-73
2022/07/03 09:33:53;;;;;;;;;;;23.70;99.60;;;;;;4977744;28;19918;-73
2022/07/03 09:36:20;;;;;;;;;;;23.70;99.60;;;;;;4978776;28;20283;-73
2022/07/03 09:38:46;;;;;;;;;;;23.70;97.50;;;;;;4966177;28;20372;-73
2022/07/03 09:41:12;;;;;;;;;;;23.80;94.90;;;;;;4978044;28;19968;-73
2022/07/03 09:43:41;;;;;;;;;;;23.60;93.80;;;;;;4971426;28;20020;-73
2022/07/03 09:46:06;;;;;;;;;;;23.70;95.90;;;;;;4974858;28;19929;-73
2022/07/03 09:48:33;;;;;;;;;;;23.70;92.10;;;;;;4966569;28;19989;-73
2022/07/03 09:51:08;;;;;;;;;;;23.80;95.90;;;;;;4966776;28;20575;-73
2022/07/03 09:53:52;;;;;;;;;;;24.10;95.20;;;;;;4973880;28;19933;-73
2022/07/03 09:56:19;;;;;;;;;;;24.10;89.40;;;;;;4971555;28;20004;-73
2022/07/03 09:59:04;;;;;;;;;;;24.20;93.10;;;;;;4971511;28;19918;-73
2022/07/03 10:01:30;;;;;;;;;;;24.50;93.80;;;;;;4967230;28;19925;-73
2022/07/03 10:04:08;;;;;;;;;;;24.80;93.60;;;;;;4972447;28;20379;-73
2022/07/03 10:06:45;;;;;;;;;;;24.90;89.50;;;;;;4969634;28;19918;-73
2022/07/03 10:09:10;;;;;;;;;;;24.80;89.80;;;;;;4964974;28;19969;-73
2022/07/03 10:11:36;;;;;;;;;;;24.70;84.30;;;;;;4970165;28;19921;-73
2022/07/03 10:14:01;;;;;;;;;;;24.80;89.40;;;;;;4969696;28;20369;-72
2022/07/03 10:16:27;;;;;;;;;;;24.50;90.60;;;;;;4972388;28;20357;-73
2022/07/03 10:18:53;;;;;;;;;;;24.80;87.60;;;;;;4961585;28;19922;-73
2022/07/03 10:21:18;;;;;;;;;;;24.70;91.40;;;;;;4976538;28;20372;-73
2022/07/03 10:23:44;;;;;;;;;;;24.90;90.70;;;;;;4958470;28;19973;-73
2022/07/03 10:26:10;;;;;;;;;;;25.20;90.40;;;;;;4954361;28;19968;-74
2022/07/03 10:28:36;;;;;;;;;;;25.20;90.50;;;;;;4957628;28;20177;-73
2022/07/03 10:31:02;;;;;;;;;;;25.20;90.00;;;;;;4973330;28;19961;-74
2022/07/03 10:33:28;;;;;;;;;;;24.80;88.20;;;;;;4974846;28;20375;-74
2022/07/03 10:35:54;;;;;;;;;;;24.50;87.60;;;;;;4970533;28;19926;-73
2022/07/03 10:38:34;;;;;;;;;;;24.80;90.70;;;;;;4969218;28;19964;-73
2022/07/03 10:46:32;;;;;;;;;;;25.70;83.60;;;;;;4971982;28;19918;-73
2022/07/03 10:49:07;;;;;;;;;;;25.70;73.90;;;;;;4971571;28;19957;-73
2022/07/03 10:51:46;;;;;;;;;;;25.80;81.70;;;;;;4971046;28;20014;-73
2022/07/03 10:54:33;;;;;;;;;;;26.00;81.20;;;;;;4966404;28;20000;-73
2022/07/03 10:56:59;;;;;;;;;;;26.20;82.80;;;;;;4976514;28;19964;-73
2022/07/03 10:59:39;;;;;;;;;;;25.80;78.40;;;;;;4968362;28;19918;-73
2022/07/03 11:02:23;;;;;;;;;;;25.60;83.00;;;;;;4969538;28;19945;-73
2022/07/03 11:04:58;;;;;;;;;;;25.70;83.10;;;;;;4982915;28;19928;-73
2022/07/03 11:07:27;;;;;;;;;;;25.60;80.50;;;;;;4950519;28;19926;-73
2022/07/03 11:10:05;;;;;;;;;;;25.60;84.40;;;;;;4973587;28;19972;-73
2022/07/03 11:12:49;;;;;;;;;;;25.30;80.90;;;;;;4956542;28;19922;-73
2022/07/03 11:15:33;;;;;;;;;;;25.60;84.60;;;;;;4975879;28;19926;-73
2022/07/03 11:18:05;;;;;;;;;;;25.90;74.40;;;;;;4967697;28;19924;-73
2022/07/03 11:20:36;;;;;;;;;;;26.30;81.80;;;;;;4976687;28;19928;-73
2022/07/03 11:23:20;;;;;;;;;;;26.70;80.00;;;;;;4978445;28;19968;-73
2022/07/03 11:25:47;;;;;;;;;;;26.50;74.90;;;;;;4969924;28;19918;-74
2022/07/03 11:28:30;;;;;;;;;;;26.70;78.50;;;;;;4973373;28;19924;-74
2022/07/03 11:33:52;;;;;;;;;;;26.80;74.50;;;;;;4958814;28;20293;-74
2022/07/03 11:36:19;;;;;;;;;;;26.90;75.20;;;;;;4969754;28;19925;-74
2022/07/03 11:38:46;;;;;;;;;;;26.50;80.70;;;;;;4970800;28;19937;-74
2022/07/03 11:41:14;;;;;;;;;;;26.40;79.20;;;;;;4975409;28;19929;-74
2022/07/03 11:43:46;;;;;;;;;;;26.40;80.00;;;;;;4974825;28;19936;-74
2022/07/03 11:46:16;;;;;;;;;;;26.30;73.20;;;;;;4971730;28;19918;-73
2022/07/03 11:48:42;;;;;;;;;;;25.70;73.30;;;;;;4969604;28;19929;-73
2022/07/03 11:51:07;;;;;;;;;;;25.90;79.40;;;;;;4970186;28;19917;-73
2022/07/03 11:53:35;;;;;;;;;;;26.00;79.50;;;;;;4967724;28;19918;-73
2022/07/03 11:56:02;;;;;;;;;;;26.50;78.60;;;;;;4971725;28;19972;-73
2022/07/03 11:58:42;;;;;;;;;;;26.70;77.80;;;;;;4967422;28;19918;-73
2022/07/03 12:01:28;;;;;;;;;;;26.60;76.20;;;;;;4961607;28;19930;-73
2022/07/03 12:04:10;;;;;;;;;;;26.70;77.80;;;;;;4964887;28;19969;-73
2022/07/03 12:06:36;;;;;;;;;;;27.00;79.50;;;;;;4961830;28;19918;-73
2022/07/03 12:09:03;;;;;;;;;;;27.40;76.00;;;;;;4965402;28;20380;-78
2022/07/03 12:11:28;;;;;;;;;;;27.80;75.20;;;;;;4959303;28;20892;-78
2022/07/03 12:13:54;;;;;;;;;;;27.90;75.30;;;;;;4967326;28;20009;-77
2022/07/03 12:16:30;;;;;;;;;;;27.40;73.40;;;;;;4974162;28;19965;-78
2022/07/03 12:18:56;;;;;;;;;;;27.20;73.60;;;;;;4973099;28;19926;-78
2022/07/03 12:21:22;;;;;;;;;;;27.10;76.10;;;;;;4971836;28;20016;-79
2022/07/03 12:23:49;;;;;;;;;;;27.00;77.90;;;;;;4969600;28;19918;-78
2022/07/03 12:26:29;;;;;;;;;;;26.80;76.70;;;;;;4969107;28;19960;-79
2022/07/03 12:28:55;;;;;;;;;;;26.70;80.20;;;;;;4966234;28;19934;-80
2022/07/03 12:31:20;;;;;;;;;;;26.80;81.30;;;;;;4967151;28;20870;-79
2022/07/03 12:33:46;;;;;;;;;;;26.70;82.20;;;;;;4969447;28;19921;-80
2022/07/03 12:36:12;;;;;;;;;;;26.60;83.20;;;;;;4967598;28;19918;-80
2022/07/03 12:38:39;;;;;;;;;;;26.50;84.20;;;;;;4971141;28;19918;-79
2022/07/03 12:41:05;;;;;;;;;;;26.10;78.50;;;;;;4969798;28;20061;-80
2022/07/03 12:43:41;;;;;;;;;;;25.70;77.90;;;;;;4967404;28;19961;-79
2022/07/03 12:46:24;;;;;;;;;;;25.50;77.90;;;;;;4966608;28;20526;-79
2022/07/03 12:48:51;;;;;;;;;;;25.30;80.30;;;;;;4950510;28;19988;-80
2022/07/03 12:51:36;;;;;;;;;;;25.30;88.50;;;;;;4970146;28;20029;-79
2022/07/03 12:54:02;;;;;;;;;;;25.60;90.10;;;;;;4947922;28;19926;-79
2022/07/03 12:56:27;;;;;;;;;;;25.90;88.90;;;;;;4969445;28;20319;-81
2022/07/03 13:01:37;;;;;;;;;;;26.30;89.50;;;;;;4969334;28;20359;-79
2022/07/03 13:04:03;;;;;;;;;;;26.60;78.30;;;;;;4951682;28;20009;-80
2022/07/03 13:06:29;;;;;;;;;;;26.80;76.70;;;;;;4951788;28;19922;-80
2022/07/03 13:08:56;;;;;;;;;;;26.60;74.40;;;;;;4966665;28;19929;-79
2022/07/03 13:11:32;;;;;;;;;;;26.40;80.90;;;;;;4969870;28;20300;-79
2022/07/03 13:14:10;;;;;;;;;;;26.20;81.10;;;;;;4950719;28;20320;-79
2022/07/03 13:16:37;;;;;;;;;;;26.00;81.00;;;;;;4969978;28;20312;-79
2022/07/03 13:19:04;;;;;;;;;;;25.90;82.70;;;;;;4970579;28;19921;-79
2022/07/03 13:21:30;;;;;;;;;;;25.70;78.90;;;;;;4966230;28;19930;-80
2022/07/03 13:23:55;;;;;;;;;;;25.50;80.40;;;;;;4971375;28;20005;-80
2022/07/03 13:26:21;;;;;;;;;;;25.30;81.20;;;;;;4974605;28;20367;-80
2022/07/03 13:28:47;;;;;;;;;;;25.10;84.00;;;;;;4963947;28;19918;-80
2022/07/03 13:31:12;;;;;;;;;;;24.90;81.50;;;;;;4965819;28;20372;-80
2022/07/03 13:33:38;;;;;;;;;;;24.50;80.00;;;;;;4950150;28;19918;-80
2022/07/03 13:36:04;;;;;;;;;;;24.30;84.90;;;;;;4967211;28;20308;-73
2022/07/03 13:38:30;;;;;;;;;;;23.80;84.70;;;;;;4962885;28;20016;-73
2022/07/03 13:40:58;;;;;;;;;;;23.30;98.10;;;;;;4954901;28;20017;-73
2022/07/03 13:43:24;;;;;;;;;;;22.60;99.90;;;;;;4961591;28;20403;-71
2022/07/03 13:45:50;;;;;;;;;;;22.00;99.90;;;;;;4957766;28;19918;-71
2022/07/03 13:48:15;;;;;;;;;;;21.20;99.90;;;;;;4962357;28;20016;-74
2022/07/03 13:50:42;;;;;;;;;;;20.70;99.90;;;;;;4971929;28;19963;-72
2022/07/03 13:53:07;;;;;;;;;;;20.20;99.90;;;;;;4960385;28;19925;-73
2022/07/03 13:55:33;;;;;;;;;;;19.90;99.90;;;;;;4961589;28;20388;-73
2022/07/03 13:57:58;;;;;;;;;;;19.70;99.90;;;;;;4961562;28;20381;-73
2022/07/03 14:00:24;;;;;;;;;;;19.80;99.90;;;;;;4966302;28;20502;-72
2022/07/03 14:02:50;;;;;;;;;;;19.70;99.90;;;;;;4964858;28;19918;-73
2022/07/03 14:05:15;;;;;;;;;;;19.80;99.90;;;;;;4969907;28;20431;-74
2022/07/03 14:07:41;;;;;;;;;;;19.90;99.90;;;;;;4974696;28;19928;-73
2022/07/03 14:10:07;;;;;;;;;;;20.00;99.90;;;;;;4966440;28;20115;-74
2022/07/03 14:12:32;;;;;;;;;;;20.10;99.90;;;;;;4961046;28;20009;-74
2022/07/03 14:14:58;;;;;;;;;;;20.20;99.90;;;;;;4964286;28;20058;-75
2022/07/03 14:17:23;;;;;;;;;;;20.40;99.90;;;;;;4962105;28;19925;-74
2022/07/03 14:19:49;;;;;;;;;;;20.50;99.90;;;;;;4950570;28;19926;-73
2022/07/03 14:22:15;;;;;;;;;;;20.70;99.90;;;;;;4963487;28;19922;-73
2022/07/03 14:24:40;;;;;;;;;;;20.80;99.90;;;;;;4972142;28;19918;-74
2022/07/03 14:32:35;;;;;;;;;;;22.20;99.90;;;;;;4969374;28;20017;-73
2022/07/03 14:35:02;;;;;;;;;;;22.70;99.90;;;;;;4972641;28;19925;-73
2022/07/03 14:37:28;;;;;;;;;;;23.10;99.90;;;;;;4977445;28;19954;-73
2022/07/03 14:39:53;;;;;;;;;;;23.30;99.90;;;;;;4973745;28;20007;-73